Time;durP1;ratioP1;P1;durP2;ratioP2;P2;SDS_P1;SDS_P2;PMS_P1;PMS_P2;Temp;Humidity;BMP_temperature;BMP_pressure;BME280_temperature;BME280_humidity;BME280_pressure;Samples;Min_cycle;Max_cycle;Signal;HPM_P1;HPM_P2
2022/11/24 02:27:04;;;;;;;12.77;3.10;;;;;;;15.95;nan;101717.31;6156521;23;20784;-89
2022/11/24 02:29:51;;;;;;;14.93;3.73;;;;;;;15.99;nan;101724.94;6083096;23;20731;-89
2022/11/24 02:32:34;;;;;;;9.50;2.80;;;;;;;15.93;nan;101713.91;6106799;23;20409;-89
2022/11/24 07:26:14;;;;;;;5.57;2.37;;;;;;;15.35;nan;101711.44;6187601;23;20478;-90
2022/11/24 07:59:49;;;;;;;14.90;3.20;;;;;;;15.67;nan;101726.50;5846442;24;20916;-92
2022/11/24 08:02:34;;;;;;;9.30;3.40;;;;;;;15.65;nan;101717.59;5821680;24;20411;-90
2022/11/24 08:05:07;;;;;;;8.53;3.17;;;;;;;15.74;nan;101721.88;5873194;24;20413;-90
2022/11/24 08:08:01;;;;;;;9.40;3.17;;;;;;;15.78;nan;101720.41;5867179;24;20503;-90
2022/11/24 08:10:56;;;;;;;12.53;3.63;;;;;;;15.89;nan;101736.38;5949988;24;20920;-90
2022/11/24 08:13:46;;;;;;;9.00;3.00;;;;;;;15.93;nan;101725.78;5932012;24;20426;-90
2022/11/24 08:16:49;;;;;;;7.83;3.20;;;;;;;16.06;nan;101738.78;5916090;24;20531;-90
2022/11/24 09:24:46;;;;;;;10.03;4.20;;;;;;;17.93;nan;101782.75;6214436;22;20595;-92
2022/11/24 09:35:06;;;;;;;8.77;2.47;;;;;;;18.40;nan;101790.91;6010193;23;20896;-93
2022/11/24 09:37:50;;;;;;;11.00;2.77;;;;;;;18.41;nan;101765.75;5987032;23;20417;-94
2022/11/24 09:40:36;;;;;;;11.73;3.10;;;;;;;18.69;nan;101786.72;5987056;23;20523;-93
2022/11/24 09:43:16;;;;;;;7.93;2.13;;;;;;;18.72;nan;101775.19;5986929;23;20397;-92
2022/11/24 09:45:44;;;;;;;10.43;2.50;;;;;;;18.90;nan;101792.75;5986525;23;20757;-93
2022/11/24 09:48:43;;;;;;;5.90;1.77;;;;;;;18.99;nan;101801.66;6009626;23;20745;-90
2022/11/24 09:51:13;;;;;;;9.30;2.10;;;;;;;19.05;nan;101800.75;5965744;23;21274;-91
2022/11/24 12:04:34;;;;;;;11.60;2.67;;;;;;;21.93;nan;101704.56;6214351;23;21052;-95
2022/11/24 12:22:54;;;;;;;29.63;3.13;;;;;;;21.83;nan;101703.47;6011256;23;20829;-95
2022/11/24 18:49:26;;;;;;;49.27;11.90;;;;;;;18.37;nan;101719.34;6250870;22;20439;-92
2022/11/24 18:52:01;;;;;;;50.73;12.47;;;;;;;18.26;nan;101691.31;6162967;23;20481;-91
2022/11/24 18:54:29;;;;;;;52.67;14.53;;;;;;;18.21;nan;101685.59;6114010;23;20415;-91
2022/11/24 18:57:02;;;;;;;52.93;13.30;;;;;;;18.35;nan;101704.88;6114839;23;20384;-90
2022/11/24 21:44:14;;;;;;;33.00;5.63;;;;;;;17.37;nan;101872.72;6212622;23;20418;-93
2022/11/24 21:46:42;;;;;;;27.70;7.00;;;;;;;17.32;nan;101867.00;6189322;23;20411;-89
2022/11/24 21:49:25;;;;;;;35.23;7.87;;;;;;;17.21;nan;101869.31;6146412;23;20415;-88
2022/11/24 21:51:57;;;;;;;41.33;8.80;;;;;;;17.19;nan;101865.91;6140632;23;20937;-88
2022/11/24 21:54:35;;;;;;;40.97;9.53;;;;;;;17.25;nan;101864.22;6146985;23;20407;-89
2022/11/24 21:57:06;;;;;;;52.10;11.67;;;;;;;17.40;nan;101883.38;6141349;23;20746;-88
2022/11/24 22:03:48;;;;;;;46.20;10.83;;;;;;;17.47;nan;101890.63;6216053;23;20379;-89
2022/11/24 22:06:21;;;;;;;57.37;9.90;;;;;;;17.35;nan;101863.81;6166281;23;20414;-88
2022/11/24 22:09:02;;;;;;;48.13;9.80;;;;;;;17.36;nan;101873.78;6141381;23;20434;-89
2022/11/24 22:11:51;;;;;;;33.27;8.20;;;;;;;17.45;nan;101903.78;6141734;23;20530;-89
2022/11/24 22:14:22;;;;;;;44.53;12.20;;;;;;;17.41;nan;101901.66;6165823;23;20402;-88
2022/11/24 22:16:50;;;;;;;44.00;9.87;;;;;;;17.32;nan;101897.41;6143454;23;20722;-88
2022/11/24 22:19:55;;;;;;;36.70;9.17;;;;;;;17.34;nan;101904.41;6167482;23;20766;-89
2022/11/24 22:22:23;;;;;;;30.63;9.83;;;;;;;17.13;nan;101883.31;6167051;23;20472;-88
2022/11/24 22:25:01;;;;;;;25.53;7.30;;;;;;;17.12;nan;101889.94;6167428;23;20407;-89
2022/11/24 22:27:30;;;;;;;43.53;8.10;;;;;;;17.17;nan;101905.84;6143699;23;20410;-89
2022/11/24 22:37:47;;;;;;;45.50;7.10;;;;;;;16.99;nan;101920.25;6218048;23;20406;-89
2022/11/24 22:40:22;;;;;;;47.00;9.67;;;;;;;16.87;nan;101895.16;6142879;23;20454;-88
2022/11/24 22:43:00;;;;;;;38.67;6.13;;;;;;;16.86;nan;101901.75;6146307;23;20410;-89
2022/11/24 22:45:57;;;;;;;40.70;7.20;;;;;;;16.89;nan;101922.56;6144270;23;20435;-89
2022/11/24 22:48:28;;;;;;;32.27;7.10;;;;;;;16.83;nan;101921.47;6167785;23;20407;-89
2022/11/24 22:51:28;;;;;;;31.90;7.37;;;;;;;16.80;nan;101915.50;6144307;23;20415;-88
2022/11/24 22:53:59;;;;;;;34.27;7.00;;;;;;;16.67;nan;101904.44;6167864;23;20470;-88
2022/11/24 22:57:01;;;;;;;28.10;5.80;;;;;;;16.71;nan;101916.75;6143264;23;20411;-88
2022/11/24 23:00:09;;;;;;;35.40;8.00;;;;;;;16.66;nan;101927.56;6167908;23;20497;-88
2022/11/24 23:03:12;;;;;;;;;;;;;;;;;;;;;
2022/11/24 23:06:01;;;;;;;39.93;6.63;;;;;;;16.49;nan;101908.56;6199414;23;20770;-88
2022/11/24 23:08:32;;;;;;;26.03;5.93;;;;;;;16.46;nan;101920.00;6169519;23;20418;-88
2022/11/24 23:11:10;;;;;;;37.23;6.73;;;;;;;16.32;nan;101898.06;6143135;23;20411;-89
2022/11/24 23:17:12;;;;;;;31.77;7.20;;;;;;;16.20;nan;101901.38;6217714;23;20873;-89
2022/11/24 23:22:37;;;;;;;29.20;6.10;;;;;;;16.09;nan;101906.63;6170294;23;20415;-88
2022/11/24 23:25:06;;;;;;;26.47;6.30;;;;;;;16.12;nan;101917.25;6142703;23;20411;-89
2022/11/24 23:27:34;;;;;;;20.20;5.17;;;;;;;16.15;nan;101922.38;6166098;23;20418;-88
2022/11/24 23:30:03;;;;;;;17.80;4.90;;;;;;;16.07;nan;101914.22;6141999;23;20418;-88
2022/11/24 23:32:39;;;;;;;24.03;5.00;;;;;;;16.10;nan;101930.38;6167498;23;20412;-88
2022/11/24 23:35:07;;;;;;;27.90;6.60;;;;;;;16.05;nan;101924.59;6143887;23;20800;-88
2022/11/24 23:37:44;;;;;;;25.57;6.03;;;;;;;16.03;nan;101923.94;6144664;23;20901;-88
2022/11/24 23:40:47;;;;;;;14.50;5.23;;;;;;;16.12;nan;101944.81;6157262;23;20427;-88
2022/11/24 23:47:59;;;;;;;24.33;6.17;;;;;;;16.11;nan;101951.41;6187190;23;20372;-88
2022/11/24 23:50:31;;;;;;;24.83;6.40;;;;;;;16.03;nan;101940.50;6137718;23;20883;-88
2022/11/24 23:53:31;;;;;;;24.70;5.53;;;;;;;16.11;nan;101949.50;6113729;23;20407;-89
2022/11/24 23:56:51;;;;;;;18.23;5.13;;;;;;;16.11;nan;101948.63;6137139;23;20463;-88
2022/11/24 23:59:34;;;;;;;33.67;5.97;;;;;;;16.11;nan;101948.63;6160524;23;20436;-88
